sensor_id;sensor_type;location;lat;lon;timestamp;temperature;humidity
37380;DHT22;23252;-33.992;18.480;2023-05-10T00:15:36;15.20;99.90
37380;DHT22;23252;-33.992;18.480;2023-05-10T00:18:03;15.20;99.90
37380;DHT22;23252;-33.992;18.480;2023-05-10T00:20:29;15.20;99.90
37380;DHT22;23252;-33.992;18.480;2023-05-10T00:22:55;15.20;99.90
37380;DHT22;23252;-33.992;18.480;2023-05-10T00:25:22;15.10;99.90
37380;DHT22;23252;-33.992;18.480;2023-05-10T00:27:48;15.10;99.90
37380;DHT22;23252;-33.992;18.480;2023-05-10T00:30:16;15.10;99.90
37380;DHT22;23252;-33.992;18.480;2023-05-10T00:32:42;15.00;99.90
37380;DHT22;23252;-33.992;18.480;2023-05-10T00:35:09;15.00;99.90
37380;DHT22;23252;-33.992;18.480;2023-05-10T00:37:36;15.00;99.90
37380;DHT22;23252;-33.992;18.480;2023-05-10T00:40:02;14.90;99.90
37380;DHT22;23252;-33.992;18.480;2023-05-10T00:42:29;14.90;99.90
37380;DHT22;23252;-33.992;18.480;2023-05-10T00:44:55;15.00;99.90
37380;DHT22;23252;-33.992;18.480;2023-05-10T00:47:22;15.00;99.90
37380;DHT22;23252;-33.992;18.480;2023-05-10T00:49:49;15.00;99.90
37380;DHT22;23252;-33.992;18.480;2023-05-10T00:52:16;15.00;99.90
37380;DHT22;23252;-33.992;18.480;2023-05-10T00:54:42;15.00;99.90
37380;DHT22;23252;-33.992;18.480;2023-05-10T00:57:09;15.00;99.90
37380;DHT22;23252;-33.992;18.480;2023-05-10T00:59:35;15.00;99.90
37380;DHT22;23252;-33.992;18.480;2023-05-10T01:02:02;15.00;99.90
37380;DHT22;23252;-33.992;18.480;2023-05-10T01:04:29;15.00;99.90
37380;DHT22;23252;-33.992;18.480;2023-05-10T01:06:56;14.90;99.90
37380;DHT22;23252;-33.992;18.480;2023-05-10T01:09:23;14.90;99.90
37380;DHT22;23252;-33.992;18.480;2023-05-10T01:11:52;14.90;99.90
37380;DHT22;23252;-33.992;18.480;2023-05-10T01:14:19;14.80;99.90
37380;DHT22;23252;-33.992;18.480;2023-05-10T01:16:48;14.80;99.90
37380;DHT22;23252;-33.992;18.480;2023-05-10T01:19:26;14.70;99.90
37380;DHT22;23252;-33.992;18.480;2023-05-10T01:21:59;14.70;99.90
37380;DHT22;23252;-33.992;18.480;2023-05-10T01:35:42;14.60;99.90
37380;DHT22;23252;-33.992;18.480;2023-05-10T01:38:30;14.50;99.90
37380;DHT22;23252;-33.992;18.480;2023-05-10T01:43:57;14.50;99.90
37380;DHT22;23252;-33.992;18.480;2023-05-10T01:46:57;14.50;99.90
37380;DHT22;23252;-33.992;18.480;2023-05-10T01:49:32;14.50;99.90
37380;DHT22;23252;-33.992;18.480;2023-05-10T01:52:08;14.50;99.90
37380;DHT22;23252;-33.992;18.480;2023-05-10T01:55:13;14.40;99.90
37380;DHT22;23252;-33.992;18.480;2023-05-10T01:57:37;14.40;99.90
37380;DHT22;23252;-33.992;18.480;2023-05-10T02:00:09;14.40;99.90
37380;DHT22;23252;-33.992;18.480;2023-05-10T02:02:47;14.30;99.90
37380;DHT22;23252;-33.992;18.480;2023-05-10T02:05:16;14.30;99.90
37380;DHT22;23252;-33.992;18.480;2023-05-10T02:07:43;14.20;99.90
37380;DHT22;23252;-33.992;18.480;2023-05-10T02:10:11;14.10;99.90
37380;DHT22;23252;-33.992;18.480;2023-05-10T02:12:45;14.10;99.90
37380;DHT22;23252;-33.992;18.480;2023-05-10T02:15:15;14.00;99.90
37380;DHT22;23252;-33.992;18.480;2023-05-10T02:17:43;14.00;99.90
37380;DHT22;23252;-33.992;18.480;2023-05-10T02:20:11;14.00;99.90
37380;DHT22;23252;-33.992;18.480;2023-05-10T02:22:37;14.00;99.90
37380;DHT22;23252;-33.992;18.480;2023-05-10T02:25:07;13.90;99.90
37380;DHT22;23252;-33.992;18.480;2023-05-10T02:27:35;13.90;99.90
37380;DHT22;23252;-33.992;18.480;2023-05-10T02:30:03;13.90;99.90
37380;DHT22;23252;-33.992;18.480;2023-05-10T02:32:31;13.80;99.90
37380;DHT22;23252;-33.992;18.480;2023-05-10T02:34:59;13.90;99.90
37380;DHT22;23252;-33.992;18.480;2023-05-10T02:37:27;13.80;99.90
37380;DHT22;23252;-33.992;18.480;2023-05-10T02:39:55;13.80;99.90
37380;DHT22;23252;-33.992;18.480;2023-05-10T02:42:27;13.90;99.90
37380;DHT22;23252;-33.992;18.480;2023-05-10T02:44:59;13.80;99.90
37380;DHT22;23252;-33.992;18.480;2023-05-10T02:47:27;13.90;99.90
37380;DHT22;23252;-33.992;18.480;2023-05-10T02:49:54;13.80;99.90
37380;DHT22;23252;-33.992;18.480;2023-05-10T02:52:27;13.80;99.90
37380;DHT22;23252;-33.992;18.480;2023-05-10T02:55:00;13.80;99.90
37380;DHT22;23252;-33.992;18.480;2023-05-10T02:57:32;13.80;99.90
37380;DHT22;23252;-33.992;18.480;2023-05-10T03:00:00;13.80;99.90
37380;DHT22;23252;-33.992;18.480;2023-05-10T03:02:27;13.80;99.90
37380;DHT22;23252;-33.992;18.480;2023-05-10T03:04:54;13.80;99.90
37380;DHT22;23252;-33.992;18.480;2023-05-10T03:07:20;13.80;99.90
37380;DHT22;23252;-33.992;18.480;2023-05-10T03:09:48;13.80;99.90
37380;DHT22;23252;-33.992;18.480;2023-05-10T03:12:39;13.80;99.90
37380;DHT22;23252;-33.992;18.480;2023-05-10T03:17:45;13.90;99.90
37380;DHT22;23252;-33.992;18.480;2023-05-10T03:20:20;13.90;99.90
37380;DHT22;23252;-33.992;18.480;2023-05-10T03:22:51;13.90;99.90
37380;DHT22;23252;-33.992;18.480;2023-05-10T03:25:20;13.90;99.90
37380;DHT22;23252;-33.992;18.480;2023-05-10T03:27:47;14.00;99.90
37380;DHT22;23252;-33.992;18.480;2023-05-10T03:30:14;14.00;99.90
37380;DHT22;23252;-33.992;18.480;2023-05-10T03:32:41;14.00;99.90
37380;DHT22;23252;-33.992;18.480;2023-05-10T03:35:11;14.00;99.90
37380;DHT22;23252;-33.992;18.480;2023-05-10T03:37:39;13.90;99.90
37380;DHT22;23252;-33.992;18.480;2023-05-10T03:40:06;13.90;99.90
37380;DHT22;23252;-33.992;18.480;2023-05-10T03:42:33;13.90;99.90
37380;DHT22;23252;-33.992;18.480;2023-05-10T03:44:59;13.90;99.90
37380;DHT22;23252;-33.992;18.480;2023-05-10T03:47:26;13.90;99.90
37380;DHT22;23252;-33.992;18.480;2023-05-10T03:49:52;13.80;99.90
37380;DHT22;23252;-33.992;18.480;2023-05-10T03:52:19;13.80;99.90
37380;DHT22;23252;-33.992;18.480;2023-05-10T03:54:45;13.70;99.90
37380;DHT22;23252;-33.992;18.480;2023-05-10T03:57:12;13.70;99.90
37380;DHT22;23252;-33.992;18.480;2023-05-10T03:59:38;13.70;99.90
37380;DHT22;23252;-33.992;18.480;2023-05-10T04:02:04;13.80;99.90
37380;DHT22;23252;-33.992;18.480;2023-05-10T04:04:31;13.70;99.90
37380;DHT22;23252;-33.992;18.480;2023-05-10T04:06:57;13.70;99.90
37380;DHT22;23252;-33.992;18.480;2023-05-10T04:09:24;13.70;99.90
37380;DHT22;23252;-33.992;18.480;2023-05-10T04:11:51;13.70;99.90
37380;DHT22;23252;-33.992;18.480;2023-05-10T04:14:17;13.70;99.90
37380;DHT22;23252;-33.992;18.480;2023-05-10T04:16:44;13.70;99.90
37380;DHT22;23252;-33.992;18.480;2023-05-10T04:19:10;13.60;99.90
37380;DHT22;23252;-33.992;18.480;2023-05-10T04:21:37;13.60;99.90
37380;DHT22;23252;-33.992;18.480;2023-05-10T04:24:04;13.60;99.90
37380;DHT22;23252;-33.992;18.480;2023-05-10T04:26:30;13.50;99.90
37380;DHT22;23252;-33.992;18.480;2023-05-10T04:28:57;13.50;99.90
37380;DHT22;23252;-33.992;18.480;2023-05-10T04:31:23;13.50;99.90
37380;DHT22;23252;-33.992;18.480;2023-05-10T04:33:50;13.50;99.90
37380;DHT22;23252;-33.992;18.480;2023-05-10T04:36:16;13.50;99.90
37380;DHT22;23252;-33.992;18.480;2023-05-10T04:38:43;13.40;99.90
37380;DHT22;23252;-33.992;18.480;2023-05-10T04:41:10;13.40;99.90
37380;DHT22;23252;-33.992;18.480;2023-05-10T04:43:38;13.40;99.90
37380;DHT22;23252;-33.992;18.480;2023-05-10T04:46:05;13.40;99.90
37380;DHT22;23252;-33.992;18.480;2023-05-10T04:48:33;13.40;99.90
37380;DHT22;23252;-33.992;18.480;2023-05-10T04:50:59;13.40;99.90
37380;DHT22;23252;-33.992;18.480;2023-05-10T04:53:26;13.50;99.90
37380;DHT22;23252;-33.992;18.480;2023-05-10T04:55:53;13.40;99.90
37380;DHT22;23252;-33.992;18.480;2023-05-10T04:58:19;13.40;99.90
37380;DHT22;23252;-33.992;18.480;2023-05-10T05:00:46;13.40;99.90
37380;DHT22;23252;-33.992;18.480;2023-05-10T05:03:12;13.40;99.90
37380;DHT22;23252;-33.992;18.480;2023-05-10T05:06:04;13.40;99.90
37380;DHT22;23252;-33.992;18.480;2023-05-10T05:12:14;13.30;99.90
37380;DHT22;23252;-33.992;18.480;2023-05-10T05:25:39;13.10;99.90
37380;DHT22;23252;-33.992;18.480;2023-05-10T05:28:55;13.10;99.90
37380;DHT22;23252;-33.992;18.480;2023-05-10T05:31:22;13.10;99.90
37380;DHT22;23252;-33.992;18.480;2023-05-10T05:33:48;13.10;99.90
37380;DHT22;23252;-33.992;18.480;2023-05-10T05:36:15;13.10;99.90
37380;DHT22;23252;-33.992;18.480;2023-05-10T05:38:41;13.10;99.90
37380;DHT22;23252;-33.992;18.480;2023-05-10T05:41:08;13.10;99.90
37380;DHT22;23252;-33.992;18.480;2023-05-10T05:43:34;13.10;99.90
37380;DHT22;23252;-33.992;18.480;2023-05-10T05:46:01;13.10;99.90
37380;DHT22;23252;-33.992;18.480;2023-05-10T05:48:30;13.10;99.90
37380;DHT22;23252;-33.992;18.480;2023-05-10T05:50:56;13.10;99.90
37380;DHT22;23252;-33.992;18.480;2023-05-10T05:53:23;13.10;99.90
37380;DHT22;23252;-33.992;18.480;2023-05-10T05:55:56;13.10;99.90
37380;DHT22;23252;-33.992;18.480;2023-05-10T05:58:24;13.10;99.90
37380;DHT22;23252;-33.992;18.480;2023-05-10T06:00:51;13.10;99.90
37380;DHT22;23252;-33.992;18.480;2023-05-10T06:03:19;13.00;99.90
37380;DHT22;23252;-33.992;18.480;2023-05-10T06:05:45;13.00;99.90
37380;DHT22;23252;-33.992;18.480;2023-05-10T08:13:41;15.90;99.90
37380;DHT22;23252;-33.992;18.480;2023-05-10T08:16:07;16.40;99.90
37380;DHT22;23252;-33.992;18.480;2023-05-10T08:18:34;16.40;99.90
37380;DHT22;23252;-33.992;18.480;2023-05-10T08:21:01;16.60;99.90
37380;DHT22;23252;-33.992;18.480;2023-05-10T08:23:27;16.60;99.90
37380;DHT22;23252;-33.992;18.480;2023-05-10T08:25:53;16.70;99.90
37380;DHT22;23252;-33.992;18.480;2023-05-10T08:28:20;16.80;99.90
37380;DHT22;23252;-33.992;18.480;2023-05-10T08:30:46;16.90;99.90
37380;DHT22;23252;-33.992;18.480;2023-05-10T08:33:13;16.90;99.90
37380;DHT22;23252;-33.992;18.480;2023-05-10T08:35:39;16.90;99.90
37380;DHT22;23252;-33.992;18.480;2023-05-10T08:38:06;16.90;99.90
37380;DHT22;23252;-33.992;18.480;2023-05-10T08:40:33;16.90;99.90
37380;DHT22;23252;-33.992;18.480;2023-05-10T08:43:06;17.00;99.90
37380;DHT22;23252;-33.992;18.480;2023-05-10T08:45:38;17.10;99.90
37380;DHT22;23252;-33.992;18.480;2023-05-10T08:48:07;17.10;99.90
37380;DHT22;23252;-33.992;18.480;2023-05-10T08:50:41;17.20;99.90
37380;DHT22;23252;-33.992;18.480;2023-05-10T08:53:13;17.30;99.90
37380;DHT22;23252;-33.992;18.480;2023-05-10T08:55:40;17.30;99.90
37380;DHT22;23252;-33.992;18.480;2023-05-10T08:58:09;17.30;99.90
37380;DHT22;23252;-33.992;18.480;2023-05-10T09:00:36;17.30;99.90
37380;DHT22;23252;-33.992;18.480;2023-05-10T09:03:05;17.20;99.90
37380;DHT22;23252;-33.992;18.480;2023-05-10T09:05:32;17.30;99.90
37380;DHT22;23252;-33.992;18.480;2023-05-10T09:07:58;17.40;99.90
37380;DHT22;23252;-33.992;18.480;2023-05-10T09:10:28;17.60;99.90
37380;DHT22;23252;-33.992;18.480;2023-05-10T09:12:56;17.70;99.90
37380;DHT22;23252;-33.992;18.480;2023-05-10T09:15:23;17.70;99.90
37380;DHT22;23252;-33.992;18.480;2023-05-10T09:17:50;17.80;99.90
37380;DHT22;23252;-33.992;18.480;2023-05-10T09:20:16;17.80;99.90
37380;DHT22;23252;-33.992;18.480;2023-05-10T09:22:46;17.80;99.90
37380;DHT22;23252;-33.992;18.480;2023-05-10T09:25:16;18.00;99.90
37380;DHT22;23252;-33.992;18.480;2023-05-10T09:27:46;18.20;99.90
37380;DHT22;23252;-33.992;18.480;2023-05-10T09:30:30;18.30;99.90
37380;DHT22;23252;-33.992;18.480;2023-05-10T09:32:58;18.40;99.90
37380;DHT22;23252;-33.992;18.480;2023-05-10T09:35:27;18.60;99.90
37380;DHT22;23252;-33.992;18.480;2023-05-10T09:37:56;18.70;99.90
37380;DHT22;23252;-33.992;18.480;2023-05-10T09:40:24;18.80;99.90
37380;DHT22;23252;-33.992;18.480;2023-05-10T09:45:20;19.00;99.90
37380;DHT22;23252;-33.992;18.480;2023-05-10T09:47:50;19.00;99.90
37380;DHT22;23252;-33.992;18.480;2023-05-10T09:50:16;19.10;99.90
37380;DHT22;23252;-33.992;18.480;2023-05-10T09:53:00;19.10;99.90
37380;DHT22;23252;-33.992;18.480;2023-05-10T09:55:40;19.20;99.90
37380;DHT22;23252;-33.992;18.480;2023-05-10T09:58:07;19.20;99.90
37380;DHT22;23252;-33.992;18.480;2023-05-10T10:00:37;19.30;99.90
37380;DHT22;23252;-33.992;18.480;2023-05-10T10:03:04;19.50;99.90
37380;DHT22;23252;-33.992;18.480;2023-05-10T10:05:35;19.50;99.90
37380;DHT22;23252;-33.992;18.480;2023-05-10T10:08:08;19.60;99.90
37380;DHT22;23252;-33.992;18.480;2023-05-10T10:10:35;19.70;99.90
37380;DHT22;23252;-33.992;18.480;2023-05-10T10:13:02;19.70;99.90
37380;DHT22;23252;-33.992;18.480;2023-05-10T10:15:28;19.70;99.90
37380;DHT22;23252;-33.992;18.480;2023-05-10T10:17:55;19.80;99.90
37380;DHT22;23252;-33.992;18.480;2023-05-10T10:20:22;19.90;99.90
37380;DHT22;23252;-33.992;18.480;2023-05-10T10:22:49;20.00;99.90
37380;DHT22;23252;-33.992;18.480;2023-05-10T10:25:17;20.00;99.90
37380;DHT22;23252;-33.992;18.480;2023-05-10T10:35:34;20.40;99.90
37380;DHT22;23252;-33.992;18.480;2023-05-10T10:38:01;20.40;99.90
37380;DHT22;23252;-33.992;18.480;2023-05-10T10:40:32;20.40;99.90
37380;DHT22;23252;-33.992;18.480;2023-05-10T10:43:25;20.50;99.90
37380;DHT22;23252;-33.992;18.480;2023-05-10T10:46:14;20.70;99.90
37380;DHT22;23252;-33.992;18.480;2023-05-10T10:49:07;20.80;99.90
37380;DHT22;23252;-33.992;18.480;2023-05-10T10:51:31;20.90;99.90
37380;DHT22;23252;-33.992;18.480;2023-05-10T10:54:09;21.00;99.90
37380;DHT22;23252;-33.992;18.480;2023-05-10T10:56:36;21.00;99.90
37380;DHT22;23252;-33.992;18.480;2023-05-10T10:59:03;21.00;99.90
37380;DHT22;23252;-33.992;18.480;2023-05-10T11:01:33;21.00;99.90
37380;DHT22;23252;-33.992;18.480;2023-05-10T11:06:34;21.30;99.90
37380;DHT22;23252;-33.992;18.480;2023-05-10T11:09:19;21.30;99.90
37380;DHT22;23252;-33.992;18.480;2023-05-10T11:11:55;21.40;99.90
37380;DHT22;23252;-33.992;18.480;2023-05-10T11:14:22;21.40;99.90
37380;DHT22;23252;-33.992;18.480;2023-05-10T11:16:49;21.50;99.90
37380;DHT22;23252;-33.992;18.480;2023-05-10T11:19:16;21.50;99.90
37380;DHT22;23252;-33.992;18.480;2023-05-10T11:21:50;21.60;99.90
37380;DHT22;23252;-33.992;18.480;2023-05-10T11:24:20;21.70;99.90
37380;DHT22;23252;-33.992;18.480;2023-05-10T11:26:49;21.70;99.90
37380;DHT22;23252;-33.992;18.480;2023-05-10T11:29:19;21.90;99.90
37380;DHT22;23252;-33.992;18.480;2023-05-10T11:31:47;22.00;99.90
37380;DHT22;23252;-33.992;18.480;2023-05-10T11:34:27;22.20;99.90
37380;DHT22;23252;-33.992;18.480;2023-05-10T11:37:00;22.30;99.90
37380;DHT22;23252;-33.992;18.480;2023-05-10T11:39:31;22.40;99.90
37380;DHT22;23252;-33.992;18.480;2023-05-10T11:41:58;22.70;99.90
37380;DHT22;23252;-33.992;18.480;2023-05-10T11:44:32;23.10;99.90
37380;DHT22;23252;-33.992;18.480;2023-05-10T11:47:05;23.50;99.90
37380;DHT22;23252;-33.992;18.480;2023-05-10T11:49:32;23.70;99.90
37380;DHT22;23252;-33.992;18.480;2023-05-10T11:52:06;24.00;99.90
37380;DHT22;23252;-33.992;18.480;2023-05-10T11:54:33;24.30;99.90
37380;DHT22;23252;-33.992;18.480;2023-05-10T11:57:01;24.40;99.90
37380;DHT22;23252;-33.992;18.480;2023-05-10T11:59:27;24.70;99.90
37380;DHT22;23252;-33.992;18.480;2023-05-10T12:01:54;24.90;99.90
37380;DHT22;23252;-33.992;18.480;2023-05-10T12:04:20;25.10;99.90
37380;DHT22;23252;-33.992;18.480;2023-05-10T12:06:50;25.30;99.90
37380;DHT22;23252;-33.992;18.480;2023-05-10T12:09:16;25.50;99.90
37380;DHT22;23252;-33.992;18.480;2023-05-10T12:11:43;25.60;99.90
37380;DHT22;23252;-33.992;18.480;2023-05-10T12:14:09;25.60;99.90
37380;DHT22;23252;-33.992;18.480;2023-05-10T12:16:36;25.70;99.90
37380;DHT22;23252;-33.992;18.480;2023-05-10T12:19:03;25.70;99.90
37380;DHT22;23252;-33.992;18.480;2023-05-10T12:21:30;25.70;99.90
37380;DHT22;23252;-33.992;18.480;2023-05-10T12:24:03;25.80;99.90
37380;DHT22;23252;-33.992;18.480;2023-05-10T12:26:31;25.80;99.90
37380;DHT22;23252;-33.992;18.480;2023-05-10T12:29:17;25.80;99.90
37380;DHT22;23252;-33.992;18.480;2023-05-10T12:31:55;25.90;99.90
37380;DHT22;23252;-33.992;18.480;2023-05-10T12:34:26;25.90;99.90
37380;DHT22;23252;-33.992;18.480;2023-05-10T12:36:53;26.00;99.90
37380;DHT22;23252;-33.992;18.480;2023-05-10T12:39:20;25.90;99.90
37380;DHT22;23252;-33.992;18.480;2023-05-10T12:41:47;25.80;99.90
37380;DHT22;23252;-33.992;18.480;2023-05-10T12:44:15;25.70;99.90
37380;DHT22;23252;-33.992;18.480;2023-05-10T12:46:41;25.80;99.90
37380;DHT22;23252;-33.992;18.480;2023-05-10T12:49:08;25.90;99.90
37380;DHT22;23252;-33.992;18.480;2023-05-10T12:51:34;26.00;99.90
37380;DHT22;23252;-33.992;18.480;2023-05-10T12:54:02;26.10;99.90
37380;DHT22;23252;-33.992;18.480;2023-05-10T12:56:28;26.20;99.90
37380;DHT22;23252;-33.992;18.480;2023-05-10T12:58:55;26.20;99.90
37380;DHT22;23252;-33.992;18.480;2023-05-10T13:01:21;26.10;99.90
37380;DHT22;23252;-33.992;18.480;2023-05-10T13:03:48;26.10;99.90
37380;DHT22;23252;-33.992;18.480;2023-05-10T13:06:14;25.80;99.90
37380;DHT22;23252;-33.992;18.480;2023-05-10T13:08:41;25.30;99.90
37380;DHT22;23252;-33.992;18.480;2023-05-10T13:11:10;24.90;99.90
37380;DHT22;23252;-33.992;18.480;2023-05-10T13:13:37;24.50;99.90
37380;DHT22;23252;-33.992;18.480;2023-05-10T13:16:03;24.20;99.90
37380;DHT22;23252;-33.992;18.480;2023-05-10T13:18:30;24.10;99.90
37380;DHT22;23252;-33.992;18.480;2023-05-10T13:20:56;24.00;99.90
37380;DHT22;23252;-33.992;18.480;2023-05-10T13:23:23;24.00;99.90
37380;DHT22;23252;-33.992;18.480;2023-05-10T13:25:50;23.90;99.90
37380;DHT22;23252;-33.992;18.480;2023-05-10T13:28:16;23.70;99.90
37380;DHT22;23252;-33.992;18.480;2023-05-10T13:30:43;23.60;99.90
37380;DHT22;23252;-33.992;18.480;2023-05-10T13:33:09;23.50;99.90
37380;DHT22;23252;-33.992;18.480;2023-05-10T13:35:36;23.30;99.90
37380;DHT22;23252;-33.992;18.480;2023-05-10T13:38:02;23.20;99.90
37380;DHT22;23252;-33.992;18.480;2023-05-10T13:40:29;23.10;99.90
37380;DHT22;23252;-33.992;18.480;2023-05-10T13:42:55;22.90;99.90
37380;DHT22;23252;-33.992;18.480;2023-05-10T13:45:22;22.80;99.90
37380;DHT22;23252;-33.992;18.480;2023-05-10T13:47:48;22.70;99.90
37380;DHT22;23252;-33.992;18.480;2023-05-10T13:50:21;22.60;99.90
37380;DHT22;23252;-33.992;18.480;2023-05-10T13:52:48;22.50;99.90
37380;DHT22;23252;-33.992;18.480;2023-05-10T13:55:14;22.30;99.90
37380;DHT22;23252;-33.992;18.480;2023-05-10T13:57:41;22.30;99.90
37380;DHT22;23252;-33.992;18.480;2023-05-10T14:00:09;22.20;99.90
37380;DHT22;23252;-33.992;18.480;2023-05-10T14:02:36;22.10;99.90
37380;DHT22;23252;-33.992;18.480;2023-05-10T16:15:51;18.70;99.90
37380;DHT22;23252;-33.992;18.480;2023-05-10T16:18:18;18.60;99.90
37380;DHT22;23252;-33.992;18.480;2023-05-10T16:20:44;18.60;99.90
37380;DHT22;23252;-33.992;18.480;2023-05-10T16:23:20;18.60;99.90
37380;DHT22;23252;-33.992;18.480;2023-05-10T16:25:46;18.50;99.90
37380;DHT22;23252;-33.992;18.480;2023-05-10T16:28:16;18.50;99.90
37380;DHT22;23252;-33.992;18.480;2023-05-10T16:30:44;18.40;99.90
37380;DHT22;23252;-33.992;18.480;2023-05-10T16:33:12;18.40;99.90
37380;DHT22;23252;-33.992;18.480;2023-05-10T16:35:39;18.30;99.90
37380;DHT22;23252;-33.992;18.480;2023-05-10T16:38:05;18.20;99.90
37380;DHT22;23252;-33.992;18.480;2023-05-10T16:40:32;18.10;99.90
37380;DHT22;23252;-33.992;18.480;2023-05-10T16:42:59;18.00;99.90
37380;DHT22;23252;-33.992;18.480;2023-05-10T16:45:25;17.90;99.90
37380;DHT22;23252;-33.992;18.480;2023-05-10T16:47:52;17.90;99.90
37380;DHT22;23252;-33.992;18.480;2023-05-10T16:50:22;17.80;99.90
37380;DHT22;23252;-33.992;18.480;2023-05-10T16:52:48;17.70;99.90
37380;DHT22;23252;-33.992;18.480;2023-05-10T16:55:17;17.70;99.90
37380;DHT22;23252;-33.992;18.480;2023-05-10T16:57:44;17.70;99.90
37380;DHT22;23252;-33.992;18.480;2023-05-10T17:00:11;17.70;99.90
37380;DHT22;23252;-33.992;18.480;2023-05-10T17:02:38;17.70;99.90
37380;DHT22;23252;-33.992;18.480;2023-05-10T17:05:04;17.70;99.90
37380;DHT22;23252;-33.992;18.480;2023-05-10T17:07:34;17.70;99.90
37380;DHT22;23252;-33.992;18.480;2023-05-10T17:10:01;17.80;99.90
37380;DHT22;23252;-33.992;18.480;2023-05-10T17:12:30;17.80;99.90
37380;DHT22;23252;-33.992;18.480;2023-05-10T17:14:56;17.90;99.90
37380;DHT22;23252;-33.992;18.480;2023-05-10T17:17:23;18.00;99.90
37380;DHT22;23252;-33.992;18.480;2023-05-10T17:19:50;18.00;99.90
37380;DHT22;23252;-33.992;18.480;2023-05-10T17:22:22;18.00;99.90
37380;DHT22;23252;-33.992;18.480;2023-05-10T17:24:58;18.00;99.90
37380;DHT22;23252;-33.992;18.480;2023-05-10T17:27:30;18.00;99.90
37380;DHT22;23252;-33.992;18.480;2023-05-10T17:29:57;17.90;99.90
37380;DHT22;23252;-33.992;18.480;2023-05-10T17:32:24;17.90;99.90
37380;DHT22;23252;-33.992;18.480;2023-05-10T17:34:51;17.80;99.90
37380;DHT22;23252;-33.992;18.480;2023-05-10T17:37:17;17.80;99.90
37380;DHT22;23252;-33.992;18.480;2023-05-10T17:39:47;17.70;99.90
37380;DHT22;23252;-33.992;18.480;2023-05-10T17:42:13;17.70;99.90
37380;DHT22;23252;-33.992;18.480;2023-05-10T17:44:42;17.70;99.90
37380;DHT22;23252;-33.992;18.480;2023-05-10T17:47:11;17.70;99.90
37380;DHT22;23252;-33.992;18.480;2023-05-10T17:49:44;17.60;99.90
37380;DHT22;23252;-33.992;18.480;2023-05-10T17:52:17;17.60;99.90
37380;DHT22;23252;-33.992;18.480;2023-05-10T17:54:44;17.50;99.90
37380;DHT22;23252;-33.992;18.480;2023-05-10T17:57:10;17.40;99.90
37380;DHT22;23252;-33.992;18.480;2023-05-10T17:59:40;17.40;99.90
37380;DHT22;23252;-33.992;18.480;2023-05-10T18:02:06;17.40;99.90
37380;DHT22;23252;-33.992;18.480;2023-05-10T18:04:33;17.40;99.90
37380;DHT22;23252;-33.992;18.480;2023-05-10T18:06:59;17.30;99.90
37380;DHT22;23252;-33.992;18.480;2023-05-10T18:09:32;17.30;99.90
37380;DHT22;23252;-33.992;18.480;2023-05-10T18:12:04;17.20;99.90
37380;DHT22;23252;-33.992;18.480;2023-05-10T18:14:37;17.20;99.90
37380;DHT22;23252;-33.992;18.480;2023-05-10T18:17:09;17.10;99.90
37380;DHT22;23252;-33.992;18.480;2023-05-10T18:19:45;17.00;99.90
37380;DHT22;23252;-33.992;18.480;2023-05-10T18:22:14;17.00;99.90
37380;DHT22;23252;-33.992;18.480;2023-05-10T18:24:47;17.00;99.90
37380;DHT22;23252;-33.992;18.480;2023-05-10T18:27:19;16.90;99.90
37380;DHT22;23252;-33.992;18.480;2023-05-10T18:29:51;16.90;99.90
37380;DHT22;23252;-33.992;18.480;2023-05-10T18:32:23;16.90;99.90
37380;DHT22;23252;-33.992;18.480;2023-05-10T18:34:52;16.80;99.90
37380;DHT22;23252;-33.992;18.480;2023-05-10T18:37:19;16.70;99.90
37380;DHT22;23252;-33.992;18.480;2023-05-10T18:39:45;16.70;99.90
37380;DHT22;23252;-33.992;18.480;2023-05-10T18:42:12;16.70;99.90
37380;DHT22;23252;-33.992;18.480;2023-05-10T18:44:39;16.70;99.90
37380;DHT22;23252;-33.992;18.480;2023-05-10T18:47:05;16.70;99.90
37380;DHT22;23252;-33.992;18.480;2023-05-10T18:49:32;16.70;99.90
37380;DHT22;23252;-33.992;18.480;2023-05-10T18:52:01;16.70;99.90
37380;DHT22;23252;-33.992;18.480;2023-05-10T18:54:34;16.60;99.90
37380;DHT22;23252;-33.992;18.480;2023-05-10T18:57:00;16.60;99.90
37380;DHT22;23252;-33.992;18.480;2023-05-10T18:59:29;16.50;99.90
37380;DHT22;23252;-33.992;18.480;2023-05-10T19:02:02;16.50;99.90
37380;DHT22;23252;-33.992;18.480;2023-05-10T19:04:34;16.50;99.90
37380;DHT22;23252;-33.992;18.480;2023-05-10T19:07:01;16.50;99.90
37380;DHT22;23252;-33.992;18.480;2023-05-10T19:09:31;16.50;99.90
37380;DHT22;23252;-33.992;18.480;2023-05-10T19:12:04;16.50;99.90
37380;DHT22;23252;-33.992;18.480;2023-05-10T19:14:30;16.50;99.90
37380;DHT22;23252;-33.992;18.480;2023-05-10T19:16:57;16.40;99.90
37380;DHT22;23252;-33.992;18.480;2023-05-10T19:19:26;16.50;99.90
37380;DHT22;23252;-33.992;18.480;2023-05-10T19:21:52;16.40;99.90
37380;DHT22;23252;-33.992;18.480;2023-05-10T19:24:19;16.40;99.90
37380;DHT22;23252;-33.992;18.480;2023-05-10T19:26:48;16.50;99.90
37380;DHT22;23252;-33.992;18.480;2023-05-10T19:29:21;16.40;99.90
37380;DHT22;23252;-33.992;18.480;2023-05-10T19:31:50;16.40;99.90
37380;DHT22;23252;-33.992;18.480;2023-05-10T19:34:17;16.40;99.90
37380;DHT22;23252;-33.992;18.480;2023-05-10T19:36:44;16.40;99.90
37380;DHT22;23252;-33.992;18.480;2023-05-10T19:39:11;16.50;99.90
37380;DHT22;23252;-33.992;18.480;2023-05-10T19:41:38;16.50;99.90
37380;DHT22;23252;-33.992;18.480;2023-05-10T19:44:07;16.50;99.90
37380;DHT22;23252;-33.992;18.480;2023-05-10T19:46:40;16.60;99.90
37380;DHT22;23252;-33.992;18.480;2023-05-10T19:49:06;16.60;99.90
37380;DHT22;23252;-33.992;18.480;2023-05-10T19:51:32;16.60;99.90
37380;DHT22;23252;-33.992;18.480;2023-05-10T19:54:05;16.70;99.90
37380;DHT22;23252;-33.992;18.480;2023-05-10T19:56:32;16.70;99.90
37380;DHT22;23252;-33.992;18.480;2023-05-10T19:59:22;16.70;99.90
37380;DHT22;23252;-33.992;18.480;2023-05-10T20:01:49;16.80;99.90
37380;DHT22;23252;-33.992;18.480;2023-05-10T20:04:21;16.80;99.90
37380;DHT22;23252;-33.992;18.480;2023-05-10T20:06:53;16.90;99.90
37380;DHT22;23252;-33.992;18.480;2023-05-10T20:09:20;16.90;99.90
37380;DHT22;23252;-33.992;18.480;2023-05-10T20:11:49;17.00;99.90
37380;DHT22;23252;-33.992;18.480;2023-05-10T20:14:18;17.00;99.90
37380;DHT22;23252;-33.992;18.480;2023-05-10T20:16:50;17.00;99.90
37380;DHT22;23252;-33.992;18.480;2023-05-10T22:17:37;16.10;99.90
37380;DHT22;23252;-33.992;18.480;2023-05-10T22:20:06;16.40;99.90
37380;DHT22;23252;-33.992;18.480;2023-05-10T22:22:33;16.40;99.90
37380;DHT22;23252;-33.992;18.480;2023-05-10T22:24:59;16.30;99.90
37380;DHT22;23252;-33.992;18.480;2023-05-10T22:27:26;16.30;99.90